Latest Weather Observations for Maningrida Airport

IDD60801

Issued at 10:11 pm CST Tuesday 18 June 2024 (issued every 10 minutes, with the page automatically refreshed every 10 minutes)

About weather observations | Map of weather stations | Latest weather observations for NT | Other Formats
Station Details ID: 014405 Name: MANINGRIDA AIRPORT Lat: -12.06 Lon: 134.23 Height: 28.1 m
Data from the previous 72 hours. | See also: Recent months at Maningrida Airport
Date/Time
CST
Temp
°C
App
Temp
°C
Dew
Point
°C
Rel
Hum
%
Delta-T
°C
Wind Press
QNH
hPa
Press
MSL
hPa
Rain since
9am
mm
Dir  Spd
km/h
Gust
km/h
Spd
kts
Gust
kts
18/10:00pm 23.3 23.4 17.5 70 3.6 ESE 13 17 7 9 1014.2 1014.0 0.0
18/09:30pm 22.7 23.8 18.0 75 2.9 SE 9 13 5 7 1013.9 1013.7 0.0
18/09:00pm 23.6 24.8 18.3 72 3.3 ESE 9 13 5 7 1013.8 1013.6 0.0
18/08:30pm 23.8 26.0 19.5 77 2.8 E 7 11 4 6 1013.5 1013.3 0.0
18/08:00pm 24.2 26.8 20.5 80 2.4 E 7 9 4 5 1013.0 1012.8 0.0
18/07:30pm 24.5 27.1 20.4 78 2.7 E 7 9 4 5 1012.6 1012.4 0.0
18/07:00pm 24.8 28.2 20.1 75 3.1 ENE 2 7 1 4 1012.2 1012.0 0.0
18/06:30pm 25.3 27.6 19.9 72 3.5 ENE 7 9 4 5 1012.0 1011.8 0.0
18/06:00pm 25.9 27.4 19.8 69 4.0 ENE 11 15 6 8 1011.7 1011.5 0.0
18/05:30pm 26.7 28.0 20.1 67 4.3 NE 13 17 7 9 1011.6 1011.4 0.0
18/05:00pm 27.7 28.9 19.8 62 5.2 NE 13 17 7 9 1011.3 1011.1 0.0
18/04:30pm 28.6 30.4 19.5 58 5.9 NE 9 13 5 7 1011.0 1010.9 0.0
18/04:00pm 30.2 28.8 15.5 41 9.1 SE 17 26 9 14 1010.8 1010.7 0.0
18/03:30pm 29.8 28.8 15.5 42 8.8 ESE 15 24 8 13 1011.1 1011.0 0.0
18/03:00pm 30.0 28.9 16.4 44 8.5 ESE 17 28 9 15 1011.5 1011.3 0.0
18/02:30pm 30.1 30.4 16.1 42 8.7 ESE 9 19 5 10 1011.8 1011.6 0.0
18/02:00pm 29.6 27.9 15.7 43 8.6 ESE 19 26 10 14 1012.3 1012.1 0.0
18/01:30pm 29.1 28.5 15.6 44 8.3 E 13 22 7 12 1012.8 1012.6 0.0
18/01:00pm 28.9 28.6 16.5 47 7.7 SE 13 26 7 14 1013.2 1013.0 0.0
18/12:30pm 28.0 26.3 16.3 49 7.3 ESE 20 32 11 17 1013.6 1013.4 0.0
18/12:00pm 28.0 26.2 16.0 48 7.4 SE 20 30 11 16 1014.0 1013.8 0.0
18/11:30am 27.6 25.0 15.9 49 7.2 SE 24 32 13 17 1014.4 1014.2 0.0
18/11:00am 26.7 25.0 16.3 53 6.4 ESE 20 32 11 17 1015.0 1014.8 0.0
18/10:30am 26.2 24.2 15.6 52 6.5 ESE 20 32 11 17 1015.3 1015.1 0.0
18/10:00am 25.0 23.9 16.4 59 5.3 SE 17 32 9 17 1015.5 1015.3 0.0
18/09:30am 23.5 23.3 17.5 69 3.7 SE 15 20 8 11 1015.6 1015.4 0.0
18/09:00am 22.1 22.0 17.9 77 2.6 SE 15 20 8 11 1015.7 1015.5 -
18/08:30am 20.7 20.8 17.5 82 2.0 SSE 13 17 7 9 1015.6 1015.4 -
18/08:00am 18.3 19.5 16.8 91 0.9 S 6 9 3 5 1015.5 1015.3 -
18/07:30am 16.6 18.2 16.0 96 0.4 S 2 6 1 3 1015.1 1014.9 -
18/07:00am 15.6 15.5 15.0 96 0.3 S 9 13 5 7 1014.6 1014.4 -
18/06:30am 15.4 15.2 14.6 95 0.5 SSE 9 11 5 6 1014.6 1014.4 -
18/06:00am 15.9 16.2 14.9 94 0.6 SSE 7 9 4 5 1014.3 1014.1 -
18/05:30am 16.9 17.1 15.8 93 0.6 SSE 9 11 5 6 1014.0 1013.8 -
18/05:00am 17.0 16.4 15.7 92 0.8 SSE 13 15 7 8 1013.9 1013.7 -
18/04:30am 16.7 16.4 15.4 92 0.8 SSE 11 13 6 7 1013.8 1013.6 -
18/04:00am 17.2 17.0 15.7 91 0.9 SSE 11 13 6 7 1013.9 1013.7 -
18/03:30am 17.9 17.8 15.9 88 1.2 SSE 11 13 6 7 1014.0 1013.8 -
18/03:00am 17.2 17.5 16.1 93 0.7 SSE 9 11 5 6 1014.2 1014.0 0.0
18/02:30am 18.0 20.2 16.5 91 0.9 CALM 0 0 0 0 1014.4 1014.2 -
18/02:00am 19.1 19.7 16.9 87 1.3 SE 9 11 5 6 1014.8 1014.6 -
18/01:30am 19.9 20.1 16.7 82 1.9 SE 11 13 6 7 1015.1 1014.9 -
18/01:00am 20.8 20.6 16.8 78 2.4 SE 13 17 7 9 1015.2 1015.0 -
18/12:30am 21.3 21.6 16.9 76 2.7 ESE 11 15 6 8 1015.3 1015.1 -
18/12:00am 21.9 21.4 16.8 73 3.1 SE 15 19 8 10 1015.2 1015.0 -
 
Date/Time
CST
Temp
°C
App
Temp
°C
Dew
Point
°C
Rel
Hum
%
Delta-T
°C
Wind Press
QNH
hPa
Press
MSL
hPa
Rain since
9am
mm
Dir  Spd
km/h
Gust
km/h
Spd
kts
Gust
kts
17/11:30pm 22.5 21.7 17.0 71 3.4 SE 17 20 9 11 1015.1 1014.9 -
17/11:00pm 22.9 21.9 16.7 68 3.8 SE 17 22 9 12 1015.3 1015.1 -
17/10:30pm 23.1 22.4 16.4 66 4.1 SE 15 20 8 11 1015.0 1014.8 -
17/10:00pm 23.6 22.9 16.4 64 4.4 ESE 15 20 8 11 1015.0 1014.8 -
17/09:30pm 23.7 22.9 16.0 62 4.7 SE 15 22 8 12 1014.7 1014.5 -
17/09:00pm 23.5 23.1 15.3 60 4.9 SE 11 15 6 8 1014.5 1014.3 0.0
17/08:30pm 23.8 23.4 15.3 59 5.1 SE 11 15 6 8 1014.2 1014.0 -
17/08:00pm 25.2 24.8 15.2 54 6.0 ESE 11 13 6 7 1013.7 1013.5 -
17/07:30pm 25.0 24.9 15.0 53 6.0 SE 9 15 5 8 1013.2 1013.0 -
17/07:00pm 26.4 26.0 15.1 49 6.8 ESE 11 13 6 7 1012.8 1012.6 -
17/06:30pm 27.2 27.3 15.6 49 7.1 SE 9 11 5 6 1012.5 1012.3 -
17/06:00pm 28.6 28.3 15.5 45 8.0 ESE 11 17 6 9 1012.2 1012.0 -
17/05:30pm 29.8 28.6 15.1 40 9.0 SE 15 19 8 10 1012.0 1011.8 -
17/05:00pm 30.6 29.4 15.1 39 9.5 SE 15 20 8 11 1011.9 1011.7 -
17/04:30pm 30.8 30.0 15.2 38 9.6 ESE 13 20 7 11 1011.8 1011.6 -
17/04:00pm 31.1 29.5 15.9 40 9.5 SE 19 28 10 15 1011.6 1011.4 -
17/03:30pm 30.8 29.0 16.0 40 9.2 ESE 20 28 11 15 1011.7 1011.5 -
17/03:00pm 30.7 29.3 15.5 39 9.4 SSE 17 24 9 13 1011.8 1011.6 -
17/02:30pm 30.4 29.4 15.7 41 9.1 S 15 22 8 12 1012.0 1011.8 -
17/02:00pm 30.5 29.2 15.8 41 9.1 SE 17 28 9 15 1012.5 1012.3 0.0
17/01:30pm 30.0 27.5 14.1 37 9.6 SE 20 30 11 16 1012.9 1012.7 0.0
17/01:00pm 29.6 27.0 13.8 38 9.5 SE 20 33 11 18 1013.4 1013.2 0.0
17/12:30pm 29.1 26.7 13.7 38 9.2 SE 19 33 10 18 1013.8 1013.6 0.0
17/12:00pm 28.9 25.7 14.3 40 8.8 SSE 24 35 13 19 1014.4 1014.2 0.0
17/11:30am 28.2 25.8 14.4 42 8.3 SE 20 32 11 17 1014.9 1014.7 0.0
17/11:00am 27.1 23.1 14.1 44 7.8 SE 28 37 15 20 1015.3 1015.1 0.0
17/10:30am 26.6 24.6 15.6 50 6.7 SE 20 28 11 15 1015.5 1015.3 0.0
17/10:00am 25.7 24.8 16.8 58 5.5 SE 17 22 9 12 1015.8 1015.6 0.0
17/09:30am 23.9 24.4 18.3 71 3.5 SE 13 20 7 11 1016.0 1015.8 0.0
17/09:00am 22.5 23.0 19.3 82 2.0 SE 15 24 8 13 1016.0 1015.8 0.0
17/08:30am 21.2 22.6 19.5 90 1.1 SSE 11 15 6 8 1015.9 1015.7 0.0
17/08:00am 19.1 22.3 18.8 98 0.2 CALM 0 0 0 0 1015.7 1015.5 0.0
17/07:30am 17.2 19.5 16.7 97 0.3 CALM 0 0 0 0 1015.3 1015.1 0.0
17/07:00am 17.0 17.9 16.5 97 0.3 S 7 9 4 5 1014.9 1014.7 0.0
17/06:30am 17.4 18.0 16.9 97 0.3 S 9 13 5 7 1014.8 1014.6 0.0
17/06:00am 17.5 18.1 16.9 96 0.4 S 9 11 5 6 1014.6 1014.4 0.0
17/05:30am 18.1 18.6 17.5 96 0.4 SSE 11 13 6 7 1014.5 1014.3 0.0
17/05:00am 18.2 19.1 17.6 96 0.4 SSE 9 13 5 7 1014.3 1014.1 0.0
17/04:30am 18.0 18.5 17.4 96 0.4 SSE 11 15 6 8 1014.4 1014.2 0.0
17/04:00am 18.0 18.8 17.4 96 0.4 SSE 9 13 5 7 1014.4 1014.2 0.0
17/03:30am 17.7 18.3 16.7 94 0.6 SE 9 11 5 6 1014.6 1014.4 0.0
17/03:00am 18.2 18.5 17.0 93 0.7 SSE 11 11 6 6 1014.8 1014.6 0.0
17/02:30am 18.9 19.0 17.4 91 0.9 SSE 13 15 7 8 1014.8 1014.6 0.0
17/02:00am 19.3 19.4 17.4 89 1.2 SSE 13 15 7 8 1015.1 1014.9 0.0
17/01:30am 19.4 19.5 17.4 88 1.2 SSE 13 15 7 8 1015.2 1015.0 0.0
17/01:00am 20.2 20.7 17.4 84 1.7 SSE 11 13 6 7 1015.4 1015.2 0.0
17/12:30am 20.7 21.7 17.7 83 1.8 S 9 13 5 7 1015.5 1015.3 0.0
17/12:00am 20.7 21.5 18.1 85 1.6 SSE 11 13 6 7 1015.6 1015.4 0.0
 
Date/Time
CST
Temp
°C
App
Temp
°C
Dew
Point
°C
Rel
Hum
%
Delta-T
°C
Wind Press
QNH
hPa
Press
MSL
hPa
Rain since
9am
mm
Dir  Spd
km/h
Gust
km/h
Spd
kts
Gust
kts
16/11:30pm 21.2 22.4 18.2 83 1.9 SSE 9 13 5 7 1015.6 1015.4 0.0
16/11:00pm 22.3 24.0 19.3 83 1.9 SE 9 13 5 7 1015.6 1015.4 0.0
16/10:30pm 23.2 24.9 20.2 83 1.9 ESE 11 15 6 8 1015.8 1015.6 0.0
16/10:00pm 23.2 26.0 21.6 91 1.1 ESE 9 13 5 7 1015.8 1015.6 0.0
16/09:30pm 23.3 26.2 21.7 91 1.1 ESE 9 11 5 6 1015.5 1015.3 0.0
16/09:00pm 23.5 26.7 21.6 89 1.3 E 7 9 4 5 1015.3 1015.1 0.0
16/08:30pm 23.6 26.7 21.5 88 1.4 ESE 7 9 4 5 1015.1 1014.9 0.0
16/08:00pm 24.0 27.1 21.5 86 1.7 E 7 9 4 5 1014.8 1014.6 0.0
16/07:30pm 24.6 27.4 21.5 83 2.1 E 9 11 5 6 1014.5 1014.3 0.0
16/07:00pm 24.8 27.6 21.5 82 2.2 E 9 11 5 6 1014.2 1014.0 0.0
16/06:30pm 25.2 27.6 21.5 80 2.5 ENE 11 15 6 8 1013.9 1013.7 0.0
16/06:00pm 25.9 28.2 21.3 76 3.0 ENE 11 15 6 8 1013.7 1013.5 0.0
16/05:30pm 26.4 27.7 20.9 72 3.6 ENE 15 22 8 12 1013.4 1013.2 0.0
16/05:00pm 27.2 28.8 21.5 71 3.8 ENE 15 20 8 11 1013.3 1013.1 0.0
16/04:30pm 27.5 28.4 20.8 67 4.4 ENE 17 20 9 11 1013.2 1013.0 0.0
16/04:00pm 27.9 28.9 21.0 66 4.6 NE 17 20 9 11 1013.0 1012.8 0.0
16/03:30pm 28.5 29.2 19.7 59 5.7 NE 15 20 8 11 1012.9 1012.7 0.0
16/03:00pm 29.4 30.4 20.3 58 6.0 NE 15 22 8 12 1013.0 1012.8 0.0
16/02:30pm 29.1 29.2 20.0 58 6.0 NNE 19 26 10 14 1013.0 1012.8 0.0
16/02:00pm 28.8 28.9 20.0 59 5.8 NNE 19 26 10 14 1013.1 1012.9 0.0
16/01:30pm 30.4 28.9 17.8 46 8.0 SE 22 32 12 17 1013.4 1013.2 0.0
16/01:00pm 30.5 28.6 15.8 41 9.1 SE 20 30 11 16 1013.7 1013.5 0.0
16/12:30pm 29.5 27.5 15.6 43 8.6 ESE 20 32 11 17 1014.1 1013.9 0.0
16/12:00pm 29.9 28.7 16.0 43 8.6 ESE 17 22 9 12 1014.5 1014.3 0.0
16/11:30am 28.9 27.3 16.5 47 7.7 SE 20 28 11 15 1015.0 1014.8 0.0
16/11:00am 28.3 27.3 17.5 52 6.8 ESE 19 26 10 14 1015.3 1015.1 0.0
16/10:30am 27.5 27.3 18.5 58 5.8 SE 17 22 9 12 1015.5 1015.3 0.0
16/10:00am 26.6 27.5 20.0 67 4.3 SE 15 24 8 13 1015.6 1015.4 0.0
16/09:30am 25.5 26.5 20.3 73 3.4 SE 15 22 8 12 1015.8 1015.6 0.0
16/09:00am 24.5 24.8 20.4 78 2.7 SE 19 26 10 14 1015.7 1015.5 0.2
16/08:30am 23.6 25.0 20.3 82 2.1 SE 13 19 7 10 1015.5 1015.3 0.2
16/08:00am 22.0 23.7 20.1 89 1.2 SSE 11 17 6 9 1015.4 1015.2 0.2
16/07:30am 20.9 22.7 19.6 92 0.8 S 9 13 5 7 1015.1 1014.9 0.2
16/07:00am 20.5 22.3 19.5 94 0.6 SSE 9 15 5 8 1014.8 1014.6 0.2
16/06:30am 20.1 21.4 19.4 96 0.4 SSE 11 13 6 7 1014.9 1014.7 0.2
16/06:00am 20.2 21.2 19.4 95 0.5 SSE 13 15 7 8 1014.6 1014.4 0.2
16/05:30am 20.5 21.6 19.7 95 0.5 SSE 13 17 7 9 1014.4 1014.2 0.2
16/05:00am 20.2 21.2 19.4 95 0.5 SSE 13 15 7 8 1014.1 1013.9 0.2
16/04:30am 20.7 22.1 19.5 93 0.8 SE 11 15 6 8 1013.9 1013.7 0.2
16/04:00am 21.2 21.8 19.5 90 1.1 SE 15 19 8 10 1013.7 1013.5 0.2
16/03:30am 22.0 22.7 19.7 87 1.5 SE 15 22 8 12 1013.6 1013.4 0.2
16/03:00am 22.1 22.4 19.6 86 1.6 SE 17 20 9 11 1013.7 1013.5 0.2
16/02:30am 22.2 22.7 19.2 83 1.9 SE 15 20 8 11 1013.7 1013.5 0.2
16/02:00am 22.5 22.6 19.1 81 2.2 SE 17 20 9 11 1013.6 1013.4 0.2
16/01:30am 22.7 23.0 18.7 78 2.5 SE 15 20 8 11 1013.7 1013.5 0.2
16/01:00am 23.0 23.3 18.7 77 2.7 SE 15 20 8 11 1013.8 1013.6 0.2
16/12:30am 23.0 23.6 18.5 76 2.8 SE 13 17 7 9 1013.6 1013.4 0.2
16/12:00am 22.8 23.8 18.6 77 2.6 ESE 11 15 6 8 1013.5 1013.3 0.2
 
Date/Time
CST
Temp
°C
App
Temp
°C
Dew
Point
°C
Rel
Hum
%
Delta-T
°C
Wind Press
QNH
hPa
Press
MSL
hPa
Rain since
9am
mm
Dir  Spd
km/h
Gust
km/h
Spd
kts
Gust
kts
15/11:30pm 23.5 25.0 18.8 75 3.0 ESE 9 11 5 6 1013.5 1013.3 0.2
15/11:00pm 23.7 24.8 19.6 78 2.6 SE 13 17 7 9 1013.6 1013.4 0.2
15/10:30pm 22.9 25.0 20.2 85 1.7 SE 9 11 5 6 1013.6 1013.4 0.2

Other formats

Comma delimited format used in spreadsheet applications
http://www.bom.gov.au/fwo/IDD60801/IDD60801.95142.axf

JavaScript Object Notation format (JSON) in row-major order
http://www.bom.gov.au/fwo/IDD60801/IDD60801.95142.json

Data quality

Most of these data are generated automatically and are frequently updated. Quality checks on data are not normally performed. It is possible for incorrect values to appear. Refer to information at About Latest Weather Observations and please check the disclaimer before using these data.